Time;durP1;ratioP1;P1;durP2;ratioP2;P2;SDS_P1;SDS_P2;PMS_P1;PMS_P2;Temp;Humidity;BMP_temperature;BMP_pressure;BME280_temperature;BME280_humidity;BME280_pressure;Samples;Min_cycle;Max_cycle;Signal;HPM_P1;HPM_P2
2023/10/30 00:01:11;;;;;;;11.13;2.15;;;;;;;8.56;100.00;99812.81;6276156;22;20004;-77
2023/10/30 00:03:36;;;;;;;12.15;2.40;;;;;;;8.67;100.00;99832.66;6275914;22;20361;-75
2023/10/30 00:06:02;;;;;;;8.95;2.33;;;;;;;8.69;100.00;99839.31;6275973;22;19995;-77
2023/10/30 00:08:28;;;;;;;11.35;2.58;;;;;;;8.71;100.00;99842.59;6276050;22;20003;-75
2023/10/30 00:10:54;;;;;;;12.50;2.40;;;;;;;8.75;100.00;99840.63;6276074;22;20023;-76
2023/10/30 00:13:19;;;;;;;12.02;2.53;;;;;;;8.76;100.00;99835.38;6275942;22;20003;-77
2023/10/30 00:15:44;;;;;;;8.80;2.65;;;;;;;8.74;100.00;99847.53;6275789;22;20006;-76
2023/10/30 00:18:10;;;;;;;13.63;3.10;;;;;;;8.68;100.00;99832.53;6275960;22;20000;-79
2023/10/30 00:20:37;;;;;;;16.15;2.75;;;;;;;8.68;100.00;99839.44;6275495;22;20369;-77
2023/10/30 00:23:02;;;;;;;10.10;2.30;;;;;;;8.83;100.00;99859.75;6248788;22;20386;-76
2023/10/30 00:25:28;;;;;;;11.07;2.03;;;;;;;8.81;100.00;99866.75;6275776;22;20000;-76
2023/10/30 00:27:56;;;;;;;11.55;2.88;;;;;;;8.80;100.00;99872.84;6275692;22;20015;-78
2023/10/30 00:30:21;;;;;;;8.82;2.03;;;;;;;8.83;100.00;99872.63;6276030;22;20330;-80
2023/10/30 00:32:46;;;;;;;10.45;2.22;;;;;;;8.83;100.00;99880.34;6276276;22;20004;-80
2023/10/30 00:35:11;;;;;;;13.43;2.65;;;;;;;8.83;100.00;99875.19;6275690;22;20027;-79
2023/10/30 00:37:37;;;;;;;13.93;2.60;;;;;;;8.82;100.00;99881.28;6275960;22;20084;-79
2023/10/30 00:40:02;;;;;;;12.85;2.40;;;;;;;8.83;100.00;99880.34;6275886;22;20007;-79
2023/10/30 00:42:28;;;;;;;9.05;1.90;;;;;;;8.85;100.00;99891.38;6275912;22;20008;-76
2023/10/30 00:44:54;;;;;;;17.40;2.67;;;;;;;8.85;100.00;99891.38;6275874;22;20000;-80
2023/10/30 00:47:19;;;;;;;10.55;2.22;;;;;;;8.86;100.00;99892.19;6276102;22;20011;-80
2023/10/30 00:49:45;;;;;;;12.43;2.40;;;;;;;8.80;100.00;99884.91;6275979;22;20004;-79
2023/10/30 00:52:10;;;;;;;13.73;2.90;;;;;;;8.86;100.00;99903.31;6275407;22;20050;-80
2023/10/30 00:54:35;;;;;;;10.38;2.50;;;;;;;8.84;100.00;99907.72;6276107;22;20414;-80
2023/10/30 00:57:01;;;;;;;10.82;1.95;;;;;;;8.79;100.00;99899.53;6276040;22;20490;-79
2023/10/30 00:59:26;;;;;;;11.90;2.03;;;;;;;8.81;100.00;99913.09;6276039;22;20004;-79
2023/10/30 01:01:51;;;;;;;9.30;2.08;;;;;;;8.81;100.00;99910.53;6248503;22;20097;-80
2023/10/30 01:04:17;;;;;;;14.60;2.95;;;;;;;8.80;100.00;99924.31;6277092;22;20000;-80
2023/10/30 01:06:42;;;;;;;13.50;2.88;;;;;;;8.78;100.00;99921.03;6277746;22;20006;-79
2023/10/30 01:09:07;;;;;;;13.77;2.38;;;;;;;8.79;100.00;99924.44;6277907;22;20003;-78
2023/10/30 01:11:32;;;;;;;16.08;2.72;;;;;;;8.46;100.00;99879.53;6278049;22;20010;-80
2023/10/30 01:13:58;;;;;;;10.43;2.00;;;;;;;8.83;100.00;99943.88;6277789;22;20426;-80
2023/10/30 01:16:24;;;;;;;14.50;2.50;;;;;;;8.77;100.00;99923.72;6277915;22;20008;-81
2023/10/30 01:18:49;;;;;;;14.15;2.83;;;;;;;8.86;100.00;99943.69;6277813;22;20010;-80
2023/10/30 01:21:15;;;;;;;15.30;2.72;;;;;;;8.89;100.00;99946.03;6249891;22;20008;-80
2023/10/30 01:23:40;;;;;;;12.27;2.75;;;;;;;8.81;100.00;99930.28;6277653;22;20385;-80
2023/10/30 01:26:05;;;;;;;10.55;2.33;;;;;;;8.73;100.00;99914.56;6277550;22;20031;-79
2023/10/30 01:28:31;;;;;;;16.27;2.65;;;;;;;8.92;100.00;99948.38;6277481;22;20011;-77
2023/10/30 01:30:56;;;;;;;13.85;2.28;;;;;;;8.91;100.00;99944.16;6277760;22;20074;-77
2023/10/30 01:33:23;;;;;;;13.13;2.47;;;;;;;8.87;100.00;99941.00;6277420;22;20019;-78
2023/10/30 01:35:48;;;;;;;11.30;2.28;;;;;;;8.76;100.00;99932.38;6277190;22;20424;-76
2023/10/30 01:38:14;;;;;;;11.20;2.75;;;;;;;8.82;100.00;99932.75;6277611;22;20027;-76
2023/10/30 01:40:47;;;;;;;16.83;2.55;;;;;;;8.85;100.00;99931.75;6277305;22;20018;-77
2023/10/30 01:43:12;;;;;;;10.30;2.25;;;;;;;8.88;100.00;99939.25;6277530;22;20413;-76
2023/10/30 01:45:37;;;;;;;13.15;2.50;;;;;;;8.87;100.00;99935.84;6277378;22;20042;-77
2023/10/30 01:48:03;;;;;;;13.95;2.50;;;;;;;8.84;100.00;99938.63;6277320;22;20003;-78
2023/10/30 01:50:29;;;;;;;12.07;2.53;;;;;;;8.54;100.00;99897.81;6277247;22;20058;-78
2023/10/30 01:52:54;;;;;;;9.90;2.63;;;;;;;8.82;100.00;99940.47;6277225;22;20007;-77
2023/10/30 01:55:20;;;;;;;11.38;2.40;;;;;;;8.84;100.00;99943.75;6277251;22;20047;-78
2023/10/30 01:57:45;;;;;;;12.88;2.30;;;;;;;8.78;100.00;99928.78;6277301;22;20006;-78
2023/10/30 02:00:12;;;;;;;14.02;2.55;;;;;;;8.88;100.00;99941.81;6277533;22;20007;-79
2023/10/30 02:02:38;;;;;;;14.82;2.78;;;;;;;8.77;100.00;99924.56;6277029;22;20014;-77
2023/10/30 02:05:05;;;;;;;9.85;2.45;;;;;;;8.88;100.00;99944.41;6277395;22;20015;-79
2023/10/30 02:07:31;;;;;;;14.77;2.53;;;;;;;8.88;100.00;99949.53;6277377;22;20004;-78
2023/10/30 02:09:56;;;;;;;12.90;2.67;;;;;;;8.62;100.00;99913.56;6277487;22;20082;-79
2023/10/30 02:12:22;;;;;;;7.72;2.10;;;;;;;8.92;100.00;99956.13;6277238;22;20006;-78
2023/10/30 02:14:47;;;;;;;11.35;2.22;;;;;;;8.90;100.00;99948.50;6276863;22;20003;-76
2023/10/30 02:17:12;;;;;;;13.25;2.75;;;;;;;8.96;100.00;99946.44;6276987;22;20022;-76
2023/10/30 02:19:38;;;;;;;7.88;2.00;;;;;;;8.98;100.00;99950.53;6276978;22;20007;-78
2023/10/30 02:22:03;;;;;;;12.93;2.30;;;;;;;8.99;100.00;99947.03;6277316;22;20011;-76
2023/10/30 02:24:28;;;;;;;12.13;2.30;;;;;;;9.03;100.00;99950.22;6277248;22;20444;-75
2023/10/30 02:26:54;;;;;;;14.85;3.00;;;;;;;9.02;100.00;99956.28;6277108;22;20008;-76
2023/10/30 02:29:19;;;;;;;10.23;2.60;;;;;;;9.03;100.00;99945.06;6276752;22;20008;-76
2023/10/30 02:31:45;;;;;;;9.30;1.90;;;;;;;9.00;100.00;99940.13;6276678;22;20395;-76
2023/10/30 02:34:12;;;;;;;10.65;2.15;;;;;;;9.05;100.00;99945.78;6276756;22;20011;-76
2023/10/30 02:36:37;;;;;;;9.18;2.10;;;;;;;8.95;100.00;99922.44;6276610;22;20000;-76
2023/10/30 02:39:03;;;;;;;11.98;2.95;;;;;;;9.07;100.00;99926.72;6277254;22;20022;-77
2023/10/30 02:41:31;;;;;;;14.88;2.50;;;;;;;9.12;100.00;99934.09;6276554;22;20007;-76
2023/10/30 02:43:57;;;;;;;12.60;2.60;;;;;;;8.94;100.00;99909.66;6277079;22;20004;-77
2023/10/30 02:46:22;;;;;;;10.50;2.17;;;;;;;9.09;100.00;99942.06;6276537;22;20003;-76
2023/10/30 02:48:48;;;;;;;13.25;2.50;;;;;;;9.09;100.00;99929.19;6276506;22;20055;-75
2023/10/30 02:51:13;;;;;;;9.07;1.98;;;;;;;9.06;100.00;99927.66;6249692;22;20074;-75
2023/10/30 02:53:38;;;;;;;10.02;2.28;;;;;;;9.08;100.00;99928.34;6276552;22;20074;-77
2023/10/30 02:56:04;;;;;;;11.45;2.28;;;;;;;9.04;100.00;99926.91;6276935;22;20034;-77
2023/10/30 02:58:29;;;;;;;12.43;2.28;;;;;;;9.02;100.00;99930.53;6276542;22;20332;-77
2023/10/30 03:00:55;;;;;;;11.65;2.22;;;;;;;9.02;100.00;99933.13;6276547;22;20459;-76
2023/10/30 03:03:21;;;;;;;8.65;2.00;;;;;;;9.05;100.00;99944.03;6276478;22;20007;-76
2023/10/30 03:05:47;;;;;;;9.25;2.30;;;;;;;9.05;100.00;99938.06;6276435;22;20436;-77
2023/10/30 03:08:12;;;;;;;9.95;1.92;;;;;;;8.96;100.00;99913.78;6276542;22;20004;-77
2023/10/30 03:10:37;;;;;;;8.65;2.05;;;;;;;8.93;100.00;99908.00;6276399;22;20003;-76
2023/10/30 03:13:03;;;;;;;7.80;1.80;;;;;;;8.78;100.00;99897.88;6276897;22;20004;-77
2023/10/30 03:15:28;;;;;;;11.98;2.28;;;;;;;9.00;100.00;99940.94;6249159;22;20011;-76
2023/10/30 03:17:53;;;;;;;8.60;2.00;;;;;;;8.96;100.00;99949.00;6276846;22;20057;-79
2023/10/30 03:20:19;;;;;;;12.68;2.40;;;;;;;8.94;100.00;99958.56;6276211;22;20014;-76
2023/10/30 03:22:44;;;;;;;10.30;2.70;;;;;;;8.91;100.00;99954.47;6276293;22;20003;-76
2023/10/30 03:25:09;;;;;;;13.38;1.83;;;;;;;8.93;100.00;99949.22;6276141;22;20003;-76
2023/10/30 03:27:35;;;;;;;10.43;2.38;;;;;;;8.71;100.00;99926.72;6275788;22;20000;-77
2023/10/30 03:30:00;;;;;;;12.20;2.55;;;;;;;8.96;100.00;99967.03;6277008;22;20004;-77
2023/10/30 03:32:26;;;;;;;7.07;2.00;;;;;;;8.95;100.00;99960.22;6276071;22;20011;-77
2023/10/30 03:34:52;;;;;;;11.50;1.95;;;;;;;8.90;100.00;99956.22;6276427;22;20004;-78
2023/10/30 03:37:18;;;;;;;8.90;2.17;;;;;;;8.92;100.00;99958.69;6276131;22;20000;-76
2023/10/30 03:39:43;;;;;;;12.85;1.92;;;;;;;8.81;100.00;99933.69;6275924;22;20011;-76
2023/10/30 03:42:08;;;;;;;11.23;2.97;;;;;;;8.78;100.00;99930.53;6248008;22;20314;-76
2023/10/30 03:44:34;;;;;;;11.18;2.25;;;;;;;8.88;100.00;99947.78;6276654;22;20014;-77
2023/10/30 03:46:59;;;;;;;8.85;1.92;;;;;;;8.88;100.00;99955.50;6276325;22;20336;-76
2023/10/30 03:49:24;;;;;;;9.30;2.08;;;;;;;8.87;100.00;99951.28;6276149;22;20034;-77
2023/10/30 03:51:51;;;;;;;11.27;2.45;;;;;;;8.83;100.00;99944.69;6275928;22;20075;-78
2023/10/30 03:54:16;;;;;;;9.45;2.15;;;;;;;8.78;100.00;99941.63;6275863;22;20004;-77
2023/10/30 03:56:41;;;;;;;11.55;2.28;;;;;;;8.78;100.00;99945.97;6276141;22;20023;-77
2023/10/30 03:59:07;;;;;;;12.45;2.22;;;;;;;8.77;100.00;99947.72;6275833;22;20007;-77
2023/10/30 04:01:32;;;;;;;13.27;2.80;;;;;;;8.76;100.00;99953.81;6276173;22;20000;-77
2023/10/30 04:03:57;;;;;;;13.82;2.88;;;;;;;8.67;100.00;99938.16;6276453;22;20075;-78
2023/10/30 04:06:23;;;;;;;11.68;3.10;;;;;;;8.70;100.00;99953.38;6276391;22;20350;-78
2023/10/30 04:08:48;;;;;;;12.20;2.30;;;;;;;8.57;100.00;99933.66;6275599;22;20328;-78
2023/10/30 04:11:16;;;;;;;10.65;2.50;;;;;;;8.01;100.00;99844.91;6275929;22;20008;-78
2023/10/30 04:13:41;;;;;;;12.00;2.20;;;;;;;8.60;100.00;99945.47;6275867;22;20004;-76
2023/10/30 04:16:10;;;;;;;13.63;2.70;;;;;;;8.49;100.00;99929.97;6276188;22;20010;-76
2023/10/30 04:18:36;;;;;;;9.60;2.13;;;;;;;8.53;100.00;99946.81;6276013;22;20003;-76
2023/10/30 04:21:01;;;;;;;14.63;2.83;;;;;;;8.51;100.00;99949.50;6276115;22;20053;-78
2023/10/30 04:23:27;;;;;;;12.75;3.00;;;;;;;8.54;100.00;99943.31;6275605;22;20443;-77
2023/10/30 04:25:52;;;;;;;13.70;2.50;;;;;;;8.47;100.00;99942.94;6275930;22;20008;-76
2023/10/30 04:28:18;;;;;;;15.25;2.72;;;;;;;8.47;100.00;99940.34;6275791;22;20012;-77
2023/10/30 04:30:43;;;;;;;13.93;2.53;;;;;;;8.48;100.00;99939.44;6275968;22;20004;-77
2023/10/30 04:33:08;;;;;;;14.85;2.83;;;;;;;8.46;100.00;99950.75;6275964;22;20007;-78
2023/10/30 04:35:34;;;;;;;11.82;2.53;;;;;;;8.30;100.00;99931.19;6276187;22;20007;-77
2023/10/30 04:37:59;;;;;;;13.25;2.58;;;;;;;8.38;100.00;99943.56;6250020;22;20078;-77
2023/10/30 04:40:24;;;;;;;15.93;2.70;;;;;;;8.44;100.00;99944.88;6277730;22;20004;-79
2023/10/30 04:42:50;;;;;;;11.93;2.47;;;;;;;8.42;100.00;99946.72;6277871;22;20033;-77
2023/10/30 04:45:15;;;;;;;8.65;2.35;;;;;;;8.34;100.00;99942.06;6250010;22;20011;-77
2023/10/30 04:47:43;;;;;;;11.25;2.20;;;;;;;8.37;100.00;99956.53;6225604;22;20077;-78
2023/10/30 04:50:08;;;;;;;9.90;2.35;;;;;;;8.40;100.00;99956.31;6277925;22;20000;-79
2023/10/30 04:52:33;;;;;;;13.10;2.80;;;;;;;8.40;100.00;99966.59;6277895;22;20061;-77
2023/10/30 04:54:59;;;;;;;11.45;2.58;;;;;;;8.38;100.00;99958.16;6277877;22;20053;-78
2023/10/30 04:57:24;;;;;;;11.23;2.17;;;;;;;8.33;100.00;99956.69;6278117;22;20049;-75
2023/10/30 04:59:49;;;;;;;8.85;2.53;;;;;;;8.18;100.00;99937.16;6277817;22;20039;-79
2023/10/30 05:02:15;;;;;;;12.55;3.05;;;;;;;8.26;100.00;99950.34;6277561;22;20459;-79
2023/10/30 05:04:40;;;;;;;14.05;2.63;;;;;;;8.27;100.00;99941.69;6277760;22;20030;-80
2023/10/30 05:07:05;;;;;;;13.57;2.60;;;;;;;8.23;100.00;99934.25;6277905;22;20023;-80
2023/10/30 05:09:31;;;;;;;10.93;2.13;;;;;;;8.33;100.00;99945.56;6277377;22;20006;-80
2023/10/30 05:11:57;;;;;;;15.60;2.55;;;;;;;8.30;100.00;99940.66;6277987;22;20000;-80
2023/10/30 05:14:22;;;;;;;10.77;2.38;;;;;;;8.35;100.00;99943.75;6277807;22;20321;-78
2023/10/30 05:16:47;;;;;;;9.55;2.50;;;;;;;8.31;100.00;99935.41;6277941;22;20006;-79
2023/10/30 05:19:13;;;;;;;11.25;2.63;;;;;;;8.34;100.00;99942.94;6277311;22;20003;-79
2023/10/30 05:21:38;;;;;;;13.13;2.38;;;;;;;8.24;100.00;99948.75;6277657;22;20015;-79
2023/10/30 05:24:04;;;;;;;10.98;2.38;;;;;;;8.28;100.00;99963.91;6277690;22;20000;-80
2023/10/30 05:26:29;;;;;;;9.55;1.88;;;;;;;8.20;100.00;99944.75;6275789;22;20383;-80
2023/10/30 05:28:54;;;;;;;15.95;2.33;;;;;;;8.17;100.00;99927.78;6277867;22;20015;-80
2023/10/30 05:31:20;;;;;;;14.20;2.67;;;;;;;8.23;100.00;99934.25;6277915;22;20004;-81
2023/10/30 05:33:45;;;;;;;8.98;2.08;;;;;;;8.21;100.00;99926.66;6277456;22;20057;-80
2023/10/30 05:36:11;;;;;;;15.90;2.75;;;;;;;8.04;100.00;99899.50;6277834;22;20042;-80
2023/10/30 05:38:36;;;;;;;11.50;2.53;;;;;;;8.20;100.00;99931.91;6278055;22;20038;-81
2023/10/30 05:41:02;;;;;;;12.07;2.20;;;;;;;8.22;100.00;99932.63;6277083;22;20015;-78
2023/10/30 05:43:28;;;;;;;13.88;2.58;;;;;;;8.18;100.00;99942.31;6277371;22;20079;-80
2023/10/30 05:45:53;;;;;;;11.80;2.40;;;;;;;8.14;100.00;99943.41;6277616;22;20030;-80
2023/10/30 05:48:19;;;;;;;15.02;2.90;;;;;;;8.13;100.00;99946.91;6277394;22;20008;-79
2023/10/30 05:50:44;;;;;;;11.25;2.65;;;;;;;8.13;100.00;99946.09;6277176;22;20428;-78
2023/10/30 05:53:10;;;;;;;11.60;2.58;;;;;;;8.11;100.00;99946.19;6277812;22;20000;-79
2023/10/30 05:55:35;;;;;;;19.90;3.08;;;;;;;7.84;100.00;99897.44;6277396;22;20046;-78
2023/10/30 05:58:00;;;;;;;15.27;2.60;;;;;;;8.12;100.00;99934.97;6277277;22;20433;-78
2023/10/30 06:00:26;;;;;;;11.25;2.80;;;;;;;8.03;100.00;99927.88;6277310;22;20010;-77
2023/10/30 06:02:52;;;;;;;12.55;2.72;;;;;;;7.99;100.00;99937.56;6277324;22;20015;-77
2023/10/30 06:05:18;;;;;;;10.02;3.15;;;;;;;7.94;100.00;99936.19;6277272;22;20317;-77
2023/10/30 06:07:44;;;;;;;12.55;2.78;;;;;;;7.86;100.00;99939.28;6277561;22;20007;-77
2023/10/30 06:10:11;;;;;;;10.30;2.58;;;;;;;7.82;100.00;99944.72;6277423;22;20006;-77
2023/10/30 06:12:40;;;;;;;12.13;2.50;;;;;;;7.80;100.00;99941.44;6277356;22;20385;-78
2023/10/30 06:15:07;;;;;;;11.30;2.55;;;;;;;7.72;100.00;99935.06;6277082;22;20006;-77
2023/10/30 06:17:33;;;;;;;14.68;2.65;;;;;;;7.65;100.00;99923.50;6277365;22;20007;-78
2023/10/30 06:19:58;;;;;;;10.68;2.33;;;;;;;7.72;100.00;99941.94;6277104;22;20007;-77
2023/10/30 06:22:23;;;;;;;12.27;3.08;;;;;;;7.45;100.00;99906.81;6276887;22;20087;-77
2023/10/30 06:24:49;;;;;;;14.68;2.78;;;;;;;7.61;100.00;99947.78;6277067;22;20003;-77
2023/10/30 06:27:14;;;;;;;11.25;2.75;;;;;;;7.54;100.00;99949.09;6276639;22;20003;-77
2023/10/30 06:29:40;;;;;;;10.90;2.70;;;;;;;7.55;100.00;99961.00;6276471;22;20063;-77
2023/10/30 06:32:07;;;;;;;14.40;2.75;;;;;;;7.60;100.00;99976.16;6277018;22;20027;-80
2023/10/30 06:34:38;;;;;;;12.38;3.20;;;;;;;7.59;100.00;99974.50;6277174;22;20006;-76
2023/10/30 06:37:03;;;;;;;14.35;2.65;;;;;;;7.62;100.00;99977.69;6276845;22;20007;-80
2023/10/30 06:39:28;;;;;;;12.88;3.60;;;;;;;7.59;100.00;99972.75;6276866;22;20386;-77
2023/10/30 06:41:56;;;;;;;10.07;2.67;;;;;;;7.55;100.00;99961.00;6276352;22;20095;-77
2023/10/30 06:44:24;;;;;;;12.68;3.60;;;;;;;7.01;100.00;99884.00;6276919;22;20004;-76
2023/10/30 06:46:52;;;;;;;13.57;3.25;;;;;;;7.63;100.00;99987.03;6276438;22;20017;-77
2023/10/30 06:49:18;;;;;;;14.93;3.45;;;;;;;7.67;100.00;99990.22;6276692;22;20000;-77
2023/10/30 06:51:44;;;;;;;10.80;2.78;;;;;;;7.65;100.00;99982.63;6276609;22;20022;-77
2023/10/30 06:54:10;;;;;;;16.27;3.65;;;;;;;7.63;100.00;99975.94;6276798;22;20078;-77
2023/10/30 06:56:37;;;;;;;15.10;3.75;;;;;;;7.80;100.00;99990.28;6276993;22;20074;-76
2023/10/30 06:59:05;;;;;;;15.15;3.20;;;;;;;7.86;100.00;99990.69;6276359;22;20360;-78
2023/10/30 07:01:45;;;;;;;13.25;3.22;;;;;;;7.86;100.00;99995.81;6275956;22;20007;-78
2023/10/30 07:04:11;;;;;;;12.30;3.20;;;;;;;7.91;100.00;99992.97;6276967;22;20320;-76
2023/10/30 07:06:37;;;;;;;11.85;3.10;;;;;;;7.85;100.00;99971.03;6276697;22;20008;-76
2023/10/30 07:09:06;;;;;;;15.45;2.90;;;;;;;7.85;100.00;99971.03;6276882;22;20057;-79
2023/10/30 07:11:32;;;;;;;17.42;3.58;;;;;;;7.93;100.00;99961.09;6276103;22;20004;-77
2023/10/30 07:13:58;;;;;;;14.38;3.00;;;;;;;7.86;100.00;99951.31;6276509;22;20460;-80
2023/10/30 07:16:24;;;;;;;14.73;3.25;;;;;;;8.22;100.00;99994.34;6275077;22;20015;-75
2023/10/30 07:18:50;;;;;;;12.65;3.28;;;;;;;8.29;100.00;99990.44;6277533;22;19999;-78
2023/10/30 07:21:15;;;;;;;17.58;2.85;;;;;;;8.38;100.00;99995.00;6276253;22;20019;-79
2023/10/30 07:23:40;;;;;;;14.98;2.95;;;;;;;8.39;100.00;99996.66;6276194;22;20014;-79
2023/10/30 07:26:06;;;;;;;12.05;2.58;;;;;;;8.33;100.00;99979.84;6274462;22;20012;-78
2023/10/30 07:28:31;;;;;;;12.23;3.53;;;;;;;8.43;100.00;99999.84;6276005;22;20031;-77
2023/10/30 07:30:56;;;;;;;11.10;2.92;;;;;;;8.47;100.00;100002.13;6276049;22;20012;-79
2023/10/30 07:33:21;;;;;;;9.95;3.05;;;;;;;8.49;100.00;100002.00;6276507;22;19996;-77
2023/10/30 07:35:53;;;;;;;13.48;3.53;;;;;;;8.32;100.00;99982.50;6276558;22;20000;-81
2023/10/30 07:38:18;;;;;;;15.55;3.97;;;;;;;8.50;100.00;100012.19;6276373;22;20360;-80
2023/10/30 07:40:43;;;;;;;11.95;3.22;;;;;;;8.56;100.00;100024.66;6276088;22;19999;-78
2023/10/30 07:43:09;;;;;;;15.30;3.83;;;;;;;8.34;100.00;99984.09;6276321;22;20078;-78
2023/10/30 07:45:40;;;;;;;18.48;4.10;;;;;;;8.64;100.00;100034.41;6276000;22;20003;-76
2023/10/30 07:48:06;;;;;;;;;;;;;;;8.66;100.00;100036.91;6276686;22;20004;-76
2023/10/30 07:50:32;;;;;;;13.63;3.80;;;;;;;8.77;100.00;100042.97;6276239;22;20271;-77
2023/10/30 07:52:57;;;;;;;14.05;3.60;;;;;;;8.85;100.00;100043.28;6248920;22;20010;-78
2023/10/30 07:55:23;;;;;;;18.55;3.30;;;;;;;8.92;100.00;100028.22;6275813;22;20008;-78
2023/10/30 07:57:49;;;;;;;13.73;3.30;;;;;;;8.99;100.00;100028.63;6275912;22;20048;-80
2023/10/30 08:00:15;;;;;;;16.23;3.22;;;;;;;8.89;100.00;100013.81;6276385;22;20007;-77
2023/10/30 08:02:40;;;;;;;17.20;3.05;;;;;;;9.08;100.00;100031.38;6276585;22;20034;-79
2023/10/30 08:05:06;;;;;;;13.30;2.90;;;;;;;9.15;100.00;100026.63;6276198;22;19999;-79
2023/10/30 08:07:32;;;;;;;11.98;3.15;;;;;;;9.25;100.00;100026.81;6275970;22;20087;-78
2023/10/30 08:09:57;;;;;;;13.50;2.42;;;;;;;9.22;100.00;100011.56;6275984;22;20409;-78
2023/10/30 08:12:23;;;;;;;13.98;2.72;;;;;;;9.41;100.00;100019.63;6275676;22;20074;-79
2023/10/30 08:14:48;;;;;;;8.73;2.90;;;;;;;9.44;100.00;100009.13;6276523;22;20004;-79
2023/10/30 08:17:14;;;;;;;16.50;3.30;;;;;;;9.64;100.00;100026.56;6276108;22;20042;-80
2023/10/30 08:19:39;;;;;;;10.02;2.50;;;;;;;9.73;100.00;100023.31;6276319;22;20049;-80
2023/10/30 08:22:04;;;;;;;12.07;2.22;;;;;;;9.72;100.00;100023.41;6275694;22;20012;-81
2023/10/30 08:24:30;;;;;;;13.05;2.80;;;;;;;9.89;100.00;100037.66;6275781;22;20031;-80
2023/10/30 08:26:55;;;;;;;10.93;2.33;;;;;;;9.91;100.00;100031.47;6276064;22;20011;-78
2023/10/30 08:29:20;;;;;;;8.50;2.22;;;;;;;9.95;100.00;100030.31;6275592;22;20073;-81
2023/10/30 08:31:46;;;;;;;15.27;2.90;;;;;;;10.02;100.00;100030.66;6276075;22;20007;-79
2023/10/30 08:34:11;;;;;;;12.52;2.85;;;;;;;10.10;100.00;100038.69;6276292;22;20022;-78
2023/10/30 08:36:38;;;;;;;9.55;2.40;;;;;;;10.11;100.00;100024.03;6274283;22;20024;-79
2023/10/30 08:39:03;;;;;;;12.35;3.03;;;;;;;10.25;100.00;100036.78;6276853;22;20367;-77
2023/10/30 08:41:28;;;;;;;14.32;2.60;;;;;;;10.33;100.00;100040.44;6276552;22;20011;-73
2023/10/30 08:43:53;;;;;;;12.27;2.58;;;;;;;10.39;100.00;100041.72;6275203;22;20050;-78
2023/10/30 08:46:19;;;;;;;14.70;2.97;;;;;;;10.46;100.00;100032.59;6275238;22;20479;-79
2023/10/30 08:48:44;;;;;;;13.38;2.85;;;;;;;10.45;100.00;100012.06;6275411;22;20076;-79
2023/10/30 08:51:10;;;;;;;13.65;2.78;;;;;;;10.53;100.00;100010.53;6276041;22;20469;-79
2023/10/30 08:53:35;;;;;;;10.63;2.70;;;;;;;10.73;100.00;100029.69;6276111;22;20003;-79
2023/10/30 08:56:00;;;;;;;9.38;2.85;;;;;;;10.85;100.00;100030.50;6275710;22;20421;-78
2023/10/30 08:58:26;;;;;;;13.50;2.72;;;;;;;10.85;100.00;100027.91;6275822;22;20000;-79
2023/10/30 09:00:51;;;;;;;9.77;2.58;;;;;;;11.04;100.00;100035.06;6275537;22;20448;-77
2023/10/30 09:03:16;;;;;;;13.80;2.88;;;;;;;11.22;100.00;100040.56;6275672;22;20026;-77
2023/10/30 09:05:41;;;;;;;11.77;2.20;;;;;;;11.40;100.00;100045.09;6275911;22;19999;-78
2023/10/30 09:08:07;;;;;;;10.93;2.33;;;;;;;11.36;100.00;100011.88;6276024;22;20000;-78
2023/10/30 09:10:34;;;;;;;12.27;2.35;;;;;;;11.71;100.00;100048.69;6275985;22;20008;-74
2023/10/30 09:13:00;;;;;;;9.05;2.47;;;;;;;11.80;100.00;100056.66;6275914;22;20080;-77
2023/10/30 09:15:25;;;;;;;13.35;3.05;;;;;;;11.77;100.00;100045.59;6275708;22;20384;-78
2023/10/30 09:17:52;;;;;;;10.43;2.58;;;;;;;11.93;100.00;100058.16;6275524;22;20135;-76
2023/10/30 09:20:17;;;;;;;8.65;2.00;;;;;;;11.74;100.00;100025.16;6275667;22;20034;-74
2023/10/30 09:22:42;;;;;;;8.90;2.20;;;;;;;11.97;100.00;100041.41;6275928;22;20369;-77
2023/10/30 09:25:08;;;;;;;14.30;2.38;;;;;;;11.93;100.00;100040.03;6276919;22;20065;-78
2023/10/30 09:27:33;;;;;;;11.48;1.88;;;;;;;11.97;100.00;100033.66;6276752;22;20061;-72
2023/10/30 09:29:59;;;;;;;8.32;1.90;;;;;;;12.03;100.00;100038.34;6277272;22;20012;-77
2023/10/30 09:32:25;;;;;;;10.23;2.05;;;;;;;12.01;100.00;100035.06;6277253;22;20035;-75
2023/10/30 09:34:51;;;;;;;7.55;1.75;;;;;;;12.02;100.00;100041.06;6277673;22;20053;-80
2023/10/30 09:37:16;;;;;;;8.85;1.95;;;;;;;12.06;100.00;100032.09;6277527;22;20008;-76
2023/10/30 09:39:42;;;;;;;10.45;2.00;;;;;;;12.05;100.00;100026.09;6277914;22;20000;-73
2023/10/30 09:42:07;;;;;;;11.60;2.00;;;;;;;12.06;100.00;100032.09;6277835;22;20019;-75
2023/10/30 09:44:33;;;;;;;8.30;2.15;;;;;;;12.14;100.00;100034.06;6277389;22;20488;-75
2023/10/30 09:47:00;;;;;;;10.15;1.60;;;;;;;12.21;100.00;100030.84;6277267;22;20035;-75
2023/10/30 09:49:28;;;;;;;9.05;1.52;;;;;;;12.19;100.00;100022.38;6277363;22;20000;-77
2023/10/30 09:51:55;;;;;;;9.02;1.70;;;;;;;12.20;100.00;100018.84;6277327;22;20425;-75
2023/10/30 09:54:21;;;;;;;8.32;1.98;;;;;;;12.29;100.00;100036.22;6277415;22;20007;-75
2023/10/30 09:56:48;;;;;;;7.68;1.60;;;;;;;12.21;100.00;100020.50;6277689;22;20298;-75
2023/10/30 09:59:16;;;;;;;8.40;1.90;;;;;;;12.31;100.00;100018.78;6277150;22;20153;-74
2023/10/30 10:01:41;;;;;;;7.10;1.60;;;;;;;12.38;100.00;100021.66;6277152;22;20333;-75
2023/10/30 10:04:07;;;;;;;6.28;1.70;;;;;;;12.38;100.00;100013.06;6277092;22;20006;-76
2023/10/30 10:06:32;;;;;;;9.02;2.45;;;;;;;12.37;100.00;100001.91;6277493;22;20018;-77
2023/10/30 10:08:58;;;;;;;11.18;2.00;;;;;;;12.43;100.00;100003.16;6277208;22;20011;-75
2023/10/30 10:11:32;;;;;;;10.02;1.92;;;;;;;12.39;100.00;99992.25;6277288;22;20012;-75
2023/10/30 10:13:57;;;;;;;7.22;1.88;;;;;;;12.55;100.00;100007.31;6276886;22;20079;-77
2023/10/30 10:16:27;;;;;;;8.45;2.05;;;;;;;12.53;100.00;100016.97;6277281;22;20361;-76
2023/10/30 10:18:52;;;;;;;8.80;2.00;;;;;;;12.50;100.00;100014.66;6276920;22;20025;-76
2023/10/30 10:21:17;;;;;;;12.15;2.13;;;;;;;12.45;100.00;99999.50;6277288;22;20078;-75
2023/10/30 10:23:44;;;;;;;8.98;1.95;;;;;;;12.55;100.00;100009.91;6277063;22;20016;-75
2023/10/30 10:26:14;;;;;;;8.18;1.90;;;;;;;12.58;100.00;100014.81;6277489;22;19999;-75
2023/10/30 10:28:40;;;;;;;11.48;2.58;;;;;;;12.62;100.00;100019.63;6276716;22;20494;-74
2023/10/30 10:31:06;;;;;;;7.47;1.63;;;;;;;12.66;100.00;100009.81;6276742;22;20011;-75
2023/10/30 10:33:34;;;;;;;8.18;1.98;;;;;;;12.74;100.00;100012.56;6276770;22;20000;-73
2023/10/30 10:36:02;;;;;;;10.23;1.95;;;;;;;12.75;100.00;100011.63;6277050;22;19999;-77
2023/10/30 10:38:28;;;;;;;6.32;1.85;;;;;;;12.72;100.00;100008.47;6277151;22;20000;-76
2023/10/30 10:40:57;;;;;;;9.10;1.80;;;;;;;12.90;100.00;100018.09;6276884;22;20014;-75
2023/10/30 10:43:29;;;;;;;10.35;1.80;;;;;;;13.09;100.00;100011.34;6276999;22;20525;-75
2023/10/30 10:45:56;;;;;;;8.35;1.52;;;;;;;13.20;100.00;100004.31;6276356;22;20010;-75
2023/10/30 10:48:25;;;;;;;7.45;1.77;;;;;;;13.30;100.00;100001.72;6277180;22;20026;-76
2023/10/30 10:50:51;;;;;;;7.63;1.65;;;;;;;13.42;100.00;100003.25;6276743;22;20007;-76
2023/10/30 10:53:21;;;;;;;9.10;2.15;;;;;;;13.45;100.00;100013.34;6275486;22;20010;-73
2023/10/30 10:55:49;;;;;;;7.88;2.17;;;;;;;13.44;100.00;100010.88;6277389;22;20003;-76
2023/10/30 10:58:38;;;;;;;6.60;1.60;;;;;;;13.41;100.00;100014.56;6276839;22;20004;-74
2023/10/30 11:01:05;;;;;;;6.43;1.77;;;;;;;13.32;100.00;100002.41;6276165;22;20008;-74
2023/10/30 11:03:31;;;;;;;7.68;1.50;;;;;;;13.15;100.00;99985.69;6276418;22;20011;-75
2023/10/30 11:05:57;;;;;;;8.68;1.70;;;;;;;13.07;100.00;99977.75;6276566;22;19999;-74
2023/10/30 11:08:45;;;;;;;6.53;1.60;;;;;;;13.15;100.00;99997.84;6276445;22;20329;-77
2023/10/30 11:11:33;;;;;;;6.07;1.83;;;;;;;13.14;100.00;99989.22;6276235;22;20007;-73
2023/10/30 11:14:08;;;;;;;8.70;1.52;;;;;;;13.12;100.00;100000.69;6276450;22;20421;-76
2023/10/30 11:16:43;;;;;;;10.13;2.88;;;;;;;13.13;100.00;99984.19;6276143;22;20436;-75
2023/10/30 11:19:09;;;;;;;8.02;2.30;;;;;;;13.17;100.00;99982.94;6276549;22;20321;-76